Villanueva, New Mexico
Current Conditions -  °F | °C
As of 12:53 PM on Saturday 25 Oct 2014 (Local Time) from KCQC Reporting Station
Clear Clear  
Wind Chill: 73°   Ceiling: Unl
Heat Index: 73°   Visibility: 10mi
Dew Point: 28°   Wind: 15mph
Humidity: 19%   Direction: 270°W
Pressure: 30.33"   Gusts: 22mph
Location:  35.27°N, 105.36°W
Report Text: KCQC 251853Z AUTO 27013G19KT 10SM CLR 23/M02 A3033 RMK AO2 SLP189 T02281022
Loading
Personal Weather Stations






























Interactive Weather Map
Tropical Storm Tracking
New forecast layout! Learn more

10-Day Weather Forecast

Advertisements
Track Severe Weather on mobile